Time;durP1;ratioP1;P1;durP2;ratioP2;P2;SDS_P1;SDS_P2;PMS_P1;PMS_P2;Temp;Humidity;BMP_temperature;BMP_pressure;BME280_temperature;BME280_humidity;BME280_pressure;Samples;Min_cycle;Max_cycle;Signal;HPM_P1;HPM_P2
2022/12/10 00:01:42;;;;;;;61.25;23.75;;;;;;;-143.48;88.45;118439.88;5116964;27;20043;-32
2022/12/10 00:04:08;;;;;;;60.85;23.80;;;;;;;-143.48;88.71;118439.88;5117370;28;20019;-32
2022/12/10 00:06:35;;;;;;;65.75;24.88;;;;;;;-143.48;89.29;118439.88;5117381;28;20542;-31
2022/12/10 00:09:06;;;;;;;59.92;24.90;;;;;;;-143.48;89.03;118439.88;5117106;28;20094;-33
2022/12/10 00:11:36;;;;;;;61.88;24.95;;;;;;;-143.48;88.89;118439.88;5115868;28;20106;-33
2022/12/10 00:14:06;;;;;;;62.28;25.17;;;;;;;-143.48;88.60;118439.88;5115753;28;20478;-34
2022/12/10 00:16:33;;;;;;;60.72;24.50;;;;;;;-143.48;89.01;118439.88;5116366;28;20506;-32
2022/12/10 00:18:59;;;;;;;67.35;25.63;;;;;;;-143.48;89.02;118439.88;5116630;28;20057;-31
2022/12/10 00:21:30;;;;;;;69.13;25.83;;;;;;;-143.48;89.09;118439.88;5116087;28;20072;-32
2022/12/10 00:23:57;;;;;;;69.05;24.70;;;;;;;-143.48;89.00;118439.88;5114714;27;20020;-32
2022/12/10 00:26:25;;;;;;;62.20;24.15;;;;;;;-143.48;89.10;118439.88;5113558;28;20024;-32
2022/12/10 00:28:52;;;;;;;73.00;26.30;;;;;;;-143.48;89.25;118439.88;5114665;28;20032;-32
2022/12/10 00:31:20;;;;;;;61.58;23.63;;;;;;;-143.48;89.40;118439.88;5114700;28;20023;-32
2022/12/10 00:33:46;;;;;;;72.40;26.08;;;;;;;-143.48;88.98;118439.88;5113895;28;20028;-32
2022/12/10 00:36:15;;;;;;;68.00;25.23;;;;;;;-143.48;89.21;118439.88;5114613;28;20022;-32
2022/12/10 00:38:41;;;;;;;66.65;24.60;;;;;;;-143.48;89.22;118439.88;5114202;27;20019;-32
2022/12/10 00:41:07;;;;;;;58.47;22.92;;;;;;;-143.48;88.79;118439.88;5114321;28;20077;-32
2022/12/10 00:43:34;;;;;;;65.53;25.00;;;;;;;-143.48;88.73;118439.88;5116578;28;20027;-32
2022/12/10 00:45:59;;;;;;;64.07;24.17;;;;;;;-143.48;89.13;118439.88;5116606;28;20027;-32
2022/12/10 00:48:25;;;;;;;67.10;24.20;;;;;;;-143.48;89.14;118439.88;5116596;28;20111;-33
2022/12/10 00:50:55;;;;;;;66.60;24.65;;;;;;;-143.48;88.94;118439.88;5116207;28;20521;-32
2022/12/10 00:53:21;;;;;;;66.03;24.67;;;;;;;-143.48;89.24;118439.88;5116182;28;20423;-32
2022/12/10 00:55:46;;;;;;;65.25;25.75;;;;;;;-143.48;89.38;118439.88;5116124;28;20030;-31
2022/12/10 00:58:12;;;;;;;64.88;25.40;;;;;;;-143.48;89.78;118439.88;5116405;28;20055;-32
2022/12/10 01:00:37;;;;;;;68.85;24.90;;;;;;;-143.48;89.96;118439.88;5114472;28;20051;-32
2022/12/10 01:03:03;;;;;;;63.70;23.63;;;;;;;-143.48;89.57;118439.88;5116544;28;20069;-32
2022/12/10 01:05:28;;;;;;;67.38;23.70;;;;;;;-143.48;89.87;118439.88;5116224;28;20110;-31
2022/12/10 01:07:53;;;;;;;66.55;24.45;;;;;;;-143.48;90.18;118439.88;5115806;28;20099;-32
2022/12/10 01:10:19;;;;;;;75.25;24.50;;;;;;;-143.48;90.76;118439.88;5116089;28;20027;-32
2022/12/10 01:12:45;;;;;;;67.82;23.30;;;;;;;-143.48;91.79;118439.88;5115746;28;20034;-32
2022/12/10 01:15:11;;;;;;;76.50;24.00;;;;;;;-143.48;91.64;118439.88;5114869;28;20431;-32
2022/12/10 01:17:36;;;;;;;72.15;23.95;;;;;;;-143.48;91.75;118439.88;5115111;27;20059;-32
2022/12/10 01:20:01;;;;;;;72.72;22.48;;;;;;;-143.48;91.29;118439.88;5112239;28;20114;-32
2022/12/10 01:22:27;;;;;;;82.68;26.65;;;;;;;-143.48;91.59;118439.88;5113383;28;20080;-32
2022/12/10 01:24:52;;;;;;;123.45;28.77;;;;;;;-143.48;91.58;118439.88;5113417;28;20070;-32
2022/12/10 01:27:17;;;;;;;74.65;21.50;;;;;;;-143.48;91.54;118439.88;5113362;28;20572;-32
2022/12/10 01:29:42;;;;;;;109.55;21.42;;;;;;;-143.48;92.13;118439.88;5113363;28;20020;-32
2022/12/10 01:32:08;;;;;;;158.50;21.50;;;;;;;-143.48;92.03;118439.88;5113204;28;20023;-33
2022/12/10 01:34:33;;;;;;;136.02;19.27;;;;;;;-143.48;92.13;118439.88;5115365;28;20020;-31
2022/12/10 01:36:58;;;;;;;97.38;20.38;;;;;;;-143.48;92.65;118439.88;5115335;28;20023;-31
2022/12/10 01:39:24;;;;;;;134.85;18.85;;;;;;;-143.48;92.70;118439.88;5115307;28;20107;-31
2022/12/10 01:41:56;;;;;;;89.25;20.75;;;;;;;-143.48;92.80;118439.88;5115090;28;20028;-31
2022/12/10 01:44:21;;;;;;;101.80;20.33;;;;;;;-143.48;93.01;118439.88;5116259;28;20020;-32
2022/12/10 01:46:49;;;;;;;125.22;20.42;;;;;;;-143.48;92.76;118439.88;5113514;28;20035;-31
2022/12/10 01:49:14;;;;;;;135.95;21.67;;;;;;;-143.48;92.86;118439.88;5114225;28;20327;-31
2022/12/10 01:51:42;;;;;;;142.30;20.77;;;;;;;-143.48;93.27;118439.88;5115310;28;20099;-32
2022/12/10 01:54:15;;;;;;;77.57;18.83;;;;;;;-143.48;93.31;118439.88;5115024;28;20370;-32
2022/12/10 01:56:44;;;;;;;99.15;19.73;;;;;;;-143.48;93.57;118439.88;5114955;28;20102;-31
2022/12/10 01:59:13;;;;;;;137.13;21.00;;;;;;;-143.48;93.68;118439.88;5115127;28;20023;-31
2022/12/10 02:01:54;;;;;;;96.88;21.02;;;;;;;-143.48;93.59;118439.88;5114691;28;20036;-31
2022/12/10 02:04:39;;;;;;;119.13;21.67;;;;;;;-143.48;93.46;118439.88;5115312;28;20360;-31
2022/12/10 02:07:13;;;;;;;126.97;19.67;;;;;;;-143.48;93.38;118439.88;5114763;28;20032;-31
2022/12/10 02:09:46;;;;;;;79.60;18.92;;;;;;;-143.48;92.89;118439.88;5114723;28;20515;-31
2022/12/10 02:12:17;;;;;;;84.35;18.73;;;;;;;-143.48;92.65;118439.88;5115222;28;20025;-31
2022/12/10 02:14:58;;;;;;;101.18;19.42;;;;;;;-143.48;92.50;118439.88;5113278;28;20038;-31
2022/12/10 02:17:34;;;;;;;106.63;21.23;;;;;;;-143.48;92.95;118439.88;5114807;28;20046;-31
2022/12/10 02:20:08;;;;;;;82.65;21.20;;;;;;;-143.48;92.45;118439.88;5114766;28;20377;-31
2022/12/10 02:22:42;;;;;;;136.00;20.25;;;;;;;-143.48;92.29;118439.88;5114392;28;20027;-31
2022/12/10 02:25:11;;;;;;;134.15;20.50;;;;;;;-143.48;92.49;118439.88;5113213;28;20486;-32
2022/12/10 02:27:59;;;;;;;109.07;22.10;;;;;;;-143.48;93.07;118439.88;5114631;28;20482;-31
2022/12/10 02:30:24;;;;;;;122.75;21.50;;;;;;;-143.48;93.09;118439.88;5114178;28;20141;-31
2022/12/10 02:32:50;;;;;;;115.63;22.48;;;;;;;-143.48;92.81;118439.88;5114017;28;20023;-31
2022/12/10 02:35:21;;;;;;;147.25;21.65;;;;;;;-143.48;93.07;118439.88;5114057;28;20055;-31
2022/12/10 02:37:51;;;;;;;111.88;22.25;;;;;;;-143.48;92.68;118439.88;5114635;28;20020;-31
2022/12/10 02:40:22;;;;;;;148.07;22.67;;;;;;;-143.48;93.14;118439.88;5114340;28;20027;-31
2022/12/10 02:42:50;;;;;;;121.07;22.65;;;;;;;-143.48;93.66;118439.88;5114048;28;20023;-31
2022/12/10 02:45:18;;;;;;;191.25;25.52;;;;;;;-143.48;93.79;118439.88;5114080;28;20027;-31
2022/12/10 02:47:44;;;;;;;118.63;22.35;;;;;;;-143.48;94.03;118439.88;5114258;28;20051;-31
2022/12/10 02:50:14;;;;;;;157.32;24.55;;;;;;;-143.48;94.06;118439.88;5113926;28;20359;-31
2022/12/10 02:52:39;;;;;;;177.40;24.92;;;;;;;-143.48;94.02;118439.88;5114010;28;20023;-31
2022/12/10 02:55:04;;;;;;;158.88;23.35;;;;;;;-143.48;93.85;118439.88;5114114;28;20027;-31
2022/12/10 02:57:35;;;;;;;147.40;25.52;;;;;;;-143.48;93.94;118439.88;5113817;28;20090;-31
2022/12/10 03:00:16;;;;;;;118.03;22.77;;;;;;;-143.48;93.47;118439.88;5113746;28;20023;-31
2022/12/10 03:03:10;;;;;;;112.60;22.80;;;;;;;-143.48;93.62;118439.88;5113782;28;20040;-31
2022/12/10 03:05:40;;;;;;;128.02;23.13;;;;;;;-143.48;94.00;118439.88;5111443;28;20031;-31
2022/12/10 03:08:17;;;;;;;120.55;23.48;;;;;;;-143.48;93.01;118439.88;5113731;28;20382;-31
2022/12/10 03:10:54;;;;;;;110.47;23.45;;;;;;;-143.48;93.23;118439.88;5113553;28;20040;-31
2022/12/10 03:13:24;;;;;;;113.30;22.00;;;;;;;-143.48;93.61;118439.88;5113893;28;20442;-31
2022/12/10 03:15:53;;;;;;;194.15;25.15;;;;;;;-143.48;93.74;118439.88;5113881;28;20165;-31
2022/12/10 03:18:24;;;;;;;169.82;25.02;;;;;;;-143.48;93.78;118439.88;5112298;28;20420;-31
2022/12/10 03:20:53;;;;;;;156.55;25.30;;;;;;;-143.48;93.99;118439.88;5114010;28;20031;-31
2022/12/10 03:23:19;;;;;;;129.57;24.65;;;;;;;-143.48;93.60;118439.88;5113870;28;20045;-31
2022/12/10 03:25:48;;;;;;;153.52;22.25;;;;;;;-143.48;93.35;118439.88;5113599;28;20023;-31
2022/12/10 03:28:15;;;;;;;139.18;22.67;;;;;;;-143.48;93.58;118439.88;5112579;28;20028;-31
2022/12/10 03:30:42;;;;;;;143.73;23.38;;;;;;;-143.48;93.74;118439.88;5112255;28;20084;-31
2022/12/10 03:33:08;;;;;;;169.90;23.67;;;;;;;-143.48;93.73;118439.88;5114003;28;20027;-31
2022/12/10 03:35:34;;;;;;;152.73;26.52;;;;;;;-143.48;94.14;118439.88;5113383;28;20055;-31
2022/12/10 03:38:00;;;;;;;170.43;23.35;;;;;;;-143.48;93.57;118439.88;5113397;28;20164;-31
2022/12/10 03:40:26;;;;;;;179.52;24.45;;;;;;;-143.48;93.89;118439.88;5112136;28;20031;-31
2022/12/10 03:42:51;;;;;;;160.02;23.13;;;;;;;-143.48;94.13;118439.88;5113810;28;20051;-31
2022/12/10 03:45:17;;;;;;;247.60;26.23;;;;;;;-143.48;93.96;118439.88;5113429;28;20104;-31
2022/12/10 03:47:42;;;;;;;124.50;23.75;;;;;;;-143.48;94.48;118439.88;5113087;28;20450;-31
2022/12/10 03:50:09;;;;;;;142.30;23.95;;;;;;;-143.48;94.43;118439.88;5113298;28;20059;-32
2022/12/10 03:52:34;;;;;;;143.95;21.98;;;;;;;-143.48;94.07;118439.88;5113833;28;20510;-31
2022/12/10 03:55:00;;;;;;;179.07;25.40;;;;;;;-143.48;93.86;118439.88;5113780;28;20149;-31
2022/12/10 03:57:25;;;;;;;239.77;26.20;;;;;;;-143.48;94.05;118439.88;5113542;28;20461;-31
2022/12/10 03:59:50;;;;;;;202.55;25.35;;;;;;;-143.48;94.12;118439.88;5113586;28;20047;-31
2022/12/10 04:02:16;;;;;;;160.85;25.08;;;;;;;-143.48;94.56;118439.88;5112998;28;20048;-31
2022/12/10 04:04:41;;;;;;;166.65;25.10;;;;;;;-143.48;94.29;118439.88;5113212;28;20016;-31
2022/12/10 04:07:06;;;;;;;233.90;26.48;;;;;;;-143.48;94.35;118439.88;5113799;28;20024;-31
2022/12/10 04:09:32;;;;;;;180.13;24.40;;;;;;;-143.48;94.33;118439.88;5114175;28;20108;-31
2022/12/10 04:11:58;;;;;;;218.77;22.92;;;;;;;-143.48;94.25;118439.88;5117072;28;20011;-31
2022/12/10 04:17:08;;;;;;;157.88;24.55;;;;;;;-143.48;94.95;118439.88;5116956;28;20461;-31
2022/12/10 04:19:34;;;;;;;172.82;26.08;;;;;;;-143.48;94.90;118439.88;5117164;28;20031;-31
2022/12/10 04:27:30;;;;;;;137.18;24.75;;;;;;;-143.48;94.17;118439.88;5116724;28;20061;-31
2022/12/10 04:29:57;;;;;;;147.77;23.42;;;;;;;-143.48;94.26;118439.88;5116666;28;20031;-31
2022/12/10 04:32:24;;;;;;;160.73;24.42;;;;;;;-143.48;94.64;118439.88;5116580;28;20027;-35
2022/12/10 04:34:50;;;;;;;182.15;23.95;;;;;;;-143.48;94.47;118439.88;5116602;28;20036;-31
2022/12/10 04:37:17;;;;;;;213.52;26.52;;;;;;;-143.48;94.72;118439.88;5115303;28;20016;-31
2022/12/10 04:39:43;;;;;;;276.55;25.23;;;;;;;-143.48;94.78;118439.88;5116465;28;20034;-31
2022/12/10 04:42:08;;;;;;;170.32;26.83;;;;;;;-143.48;95.31;118439.88;5116380;28;20024;-31
2022/12/10 04:44:34;;;;;;;246.00;25.98;;;;;;;-143.48;95.54;118439.88;5116672;28;20043;-31
2022/12/10 04:46:59;;;;;;;218.40;26.77;;;;;;;-143.48;95.83;118439.88;5116344;28;20027;-31
2022/12/10 04:49:25;;;;;;;227.20;28.30;;;;;;;-143.48;95.96;118439.88;5116265;28;20066;-31
2022/12/10 04:51:52;;;;;;;213.10;27.70;;;;;;;-143.48;95.74;118439.88;5116521;28;20019;-31
2022/12/10 04:54:18;;;;;;;173.75;24.70;;;;;;;-143.48;95.47;118439.88;5116525;28;20024;-31
2022/12/10 04:56:43;;;;;;;153.43;26.33;;;;;;;-143.48;95.08;118439.88;5116319;28;20019;-31
2022/12/10 04:59:10;;;;;;;170.88;23.17;;;;;;;-143.48;94.79;118439.88;5116378;28;20031;-31
2022/12/10 05:01:35;;;;;;;143.75;24.95;;;;;;;-143.48;94.61;118439.88;5115792;28;20046;-31
2022/12/10 05:04:04;;;;;;;250.98;28.33;;;;;;;-143.48;94.05;118439.88;5115985;28;20023;-31
2022/12/10 05:06:30;;;;;;;141.20;23.60;;;;;;;-143.48;94.11;118439.88;5116530;28;20406;-31
2022/12/10 05:08:56;;;;;;;108.72;24.70;;;;;;;-143.48;94.74;118439.88;5115959;28;20458;-31
2022/12/10 05:11:24;;;;;;;180.10;25.30;;;;;;;-143.48;94.43;118439.88;5115841;28;20031;-31
2022/12/10 05:13:50;;;;;;;169.63;23.65;;;;;;;-143.48;94.67;118439.88;5115767;28;20031;-31
2022/12/10 05:16:17;;;;;;;160.95;25.02;;;;;;;-143.48;94.89;118439.88;5115797;28;20027;-31
2022/12/10 05:18:43;;;;;;;113.18;22.88;;;;;;;-143.48;94.54;118439.88;5115774;28;20030;-31
2022/12/10 05:21:14;;;;;;;195.07;26.50;;;;;;;-143.48;94.54;118439.88;5115578;28;20036;-30
2022/12/10 05:23:45;;;;;;;220.73;28.48;;;;;;;-143.48;94.18;118439.88;5115608;28;20157;-30
2022/12/10 05:26:15;;;;;;;182.77;25.15;;;;;;;-143.48;94.42;118439.88;5115820;28;20024;-30
2022/12/10 05:28:44;;;;;;;156.25;22.50;;;;;;;-143.48;94.96;118439.88;5115530;28;20031;-30
2022/12/10 05:31:18;;;;;;;140.48;22.88;;;;;;;-143.48;94.45;118439.88;5115470;28;20023;-31
2022/12/10 05:33:44;;;;;;;127.70;24.50;;;;;;;-143.48;94.17;118439.88;5115234;28;20114;-30
2022/12/10 05:36:11;;;;;;;160.63;25.58;;;;;;;-143.48;94.36;118439.88;5115670;27;20100;-31
2022/12/10 05:38:38;;;;;;;111.93;20.80;;;;;;;-143.48;94.05;118439.88;5115282;28;20024;-31
2022/12/10 05:41:05;;;;;;;157.23;24.13;;;;;;;-143.48;94.17;118439.88;5115249;28;20027;-31
2022/12/10 05:43:30;;;;;;;117.65;22.38;;;;;;;-143.48;94.19;118439.88;5115754;28;20026;-31
2022/12/10 05:46:03;;;;;;;139.05;24.05;;;;;;;-143.48;93.97;118439.88;5113933;28;20032;-31
2022/12/10 05:48:29;;;;;;;156.20;24.88;;;;;;;-143.48;94.15;118439.88;5115396;28;20197;-31
2022/12/10 05:50:55;;;;;;;174.93;23.90;;;;;;;-143.48;94.20;118439.88;5115303;28;20103;-31
2022/12/10 05:53:20;;;;;;;114.68;22.15;;;;;;;-143.48;94.21;118439.88;5115016;28;20458;-31
2022/12/10 05:55:45;;;;;;;120.78;22.33;;;;;;;-143.48;93.77;118439.88;5115435;27;20053;-31
2022/12/10 05:58:10;;;;;;;92.28;21.10;;;;;;;-143.48;93.98;118439.88;5115114;28;20347;-31
2022/12/10 06:00:39;;;;;;;92.05;20.73;;;;;;;-143.48;93.90;118439.88;5115023;28;20055;-31
2022/12/10 06:03:04;;;;;;;111.95;22.20;;;;;;;-143.48;94.10;118439.88;5114757;28;20058;-31
2022/12/10 06:05:29;;;;;;;137.82;22.60;;;;;;;-143.48;94.12;118439.88;5114828;28;20055;-31
2022/12/10 06:07:55;;;;;;;81.47;20.45;;;;;;;-143.48;94.13;118439.88;5115057;28;20020;-31
2022/12/10 06:10:20;;;;;;;107.38;22.05;;;;;;;-143.48;93.35;118439.88;5114759;28;20023;-31
2022/12/10 06:12:45;;;;;;;121.32;20.83;;;;;;;-143.48;93.77;118439.88;5115268;28;20027;-31
2022/12/10 06:15:11;;;;;;;111.65;19.95;;;;;;;-143.48;94.31;118439.88;5114910;28;20035;-31
2022/12/10 06:17:36;;;;;;;97.30;20.88;;;;;;;-143.48;95.19;118439.88;5114930;28;20027;-31
2022/12/10 06:20:02;;;;;;;123.55;22.08;;;;;;;-143.48;94.77;118439.88;5114856;28;20019;-31
2022/12/10 06:22:27;;;;;;;72.60;21.73;;;;;;;-143.48;94.22;118439.88;5115027;28;20127;-31
2022/12/10 06:24:52;;;;;;;102.55;20.85;;;;;;;-143.48;94.41;118439.88;5114414;28;20096;-31
2022/12/10 06:27:18;;;;;;;107.82;20.90;;;;;;;-143.48;94.17;118439.88;5114744;28;20110;-31
2022/12/10 06:29:44;;;;;;;90.60;21.75;;;;;;;-143.48;94.03;118439.88;5113166;28;20019;-32
2022/12/10 06:32:09;;;;;;;110.70;22.83;;;;;;;-143.48;94.56;118439.88;5114001;28;20412;-31
2022/12/10 06:34:35;;;;;;;128.35;20.75;;;;;;;-143.48;94.17;118439.88;5114338;28;20098;-31
2022/12/10 06:37:00;;;;;;;108.45;21.05;;;;;;;-143.48;94.92;118439.88;5114247;28;20023;-31
2022/12/10 06:39:25;;;;;;;125.22;21.88;;;;;;;-143.48;95.24;118439.88;5114467;28;20062;-31
2022/12/10 06:41:51;;;;;;;77.93;21.20;;;;;;;-143.48;94.87;118439.88;5114712;28;20055;-31
2022/12/10 06:44:16;;;;;;;96.63;21.15;;;;;;;-143.48;94.84;118439.88;5114132;28;20024;-31
2022/12/10 06:46:41;;;;;;;156.18;21.83;;;;;;;-143.48;94.36;118439.88;5114136;28;20027;-31
2022/12/10 06:49:08;;;;;;;87.68;21.85;;;;;;;-143.48;94.71;118439.88;5114392;28;20459;-31
2022/12/10 06:51:33;;;;;;;84.22;20.25;;;;;;;-143.48;94.61;118439.88;5114015;28;20016;-31
2022/12/10 06:53:58;;;;;;;173.63;20.23;;;;;;;-143.48;94.32;118439.88;5113881;28;20046;-31
2022/12/10 06:56:27;;;;;;;91.65;18.05;;;;;;;-143.48;94.46;118439.88;5114051;28;20028;-31
2022/12/10 06:58:53;;;;;;;110.78;18.25;;;;;;;-143.48;94.51;118439.88;5112810;28;20032;-32
2022/12/10 07:01:21;;;;;;;173.95;21.25;;;;;;;-143.48;95.18;118439.88;5113948;28;20119;-31
2022/12/10 07:03:55;;;;;;;81.35;20.25;;;;;;;-143.48;95.18;118439.88;5113881;28;20072;-31
2022/12/10 07:06:21;;;;;;;162.20;22.48;;;;;;;-143.48;95.24;118439.88;5113896;28;20497;-31
2022/12/10 07:08:48;;;;;;;99.10;18.25;;;;;;;-143.48;95.17;118439.88;5113865;28;20039;-31
2022/12/10 07:11:15;;;;;;;95.70;18.67;;;;;;;-143.48;95.75;118439.88;5113797;28;20053;-31
2022/12/10 07:13:41;;;;;;;97.00;17.10;;;;;;;-143.48;95.52;118439.88;5113854;28;20469;-31
2022/12/10 07:16:21;;;;;;;86.55;17.90;;;;;;;-143.48;95.66;118439.88;5113840;28;20030;-31
2022/12/10 07:18:48;;;;;;;77.82;17.48;;;;;;;-143.48;95.46;118439.88;5113799;28;20110;-31
2022/12/10 07:21:34;;;;;;;106.03;19.88;;;;;;;-143.48;95.55;118439.88;5113742;28;20022;-31
2022/12/10 07:24:05;;;;;;;72.32;17.88;;;;;;;-143.48;95.81;118439.88;5113389;28;20050;-31
2022/12/10 07:26:34;;;;;;;114.65;19.60;;;;;;;-143.48;95.53;118439.88;5113658;28;20023;-31
2022/12/10 07:29:01;;;;;;;125.65;18.40;;;;;;;-143.48;95.46;118439.88;5113955;28;20023;-31
2022/12/10 07:31:27;;;;;;;108.47;17.00;;;;;;;-143.48;95.88;118439.88;5114323;28;20065;-31
2022/12/10 07:33:54;;;;;;;103.28;18.48;;;;;;;-143.48;95.65;118439.88;5113805;28;20423;-31
2022/12/10 07:36:22;;;;;;;69.82;17.98;;;;;;;-143.48;95.89;118439.88;5113627;28;20371;-31
2022/12/10 07:38:48;;;;;;;91.75;18.23;;;;;;;-143.48;95.72;118439.88;5113866;28;20396;-31
2022/12/10 07:41:14;;;;;;;61.40;18.40;;;;;;;-143.48;95.38;118439.88;5113503;28;20019;-31
2022/12/10 07:43:41;;;;;;;66.20;18.95;;;;;;;-143.48;94.95;118439.88;5114685;28;20035;-31
2022/12/10 07:46:09;;;;;;;87.15;18.85;;;;;;;-143.48;94.65;118439.88;5116700;28;20040;-31
2022/12/10 07:48:36;;;;;;;98.68;19.55;;;;;;;-143.48;94.89;118439.88;5116735;28;20204;-31
2022/12/10 07:51:03;;;;;;;91.28;19.17;;;;;;;-143.48;94.88;118439.88;5117460;28;20490;-31
2022/12/10 07:53:28;;;;;;;90.63;19.35;;;;;;;-143.48;94.30;118439.88;5115619;28;20076;-31
2022/12/10 07:55:53;;;;;;;96.35;18.60;;;;;;;-143.48;94.43;118439.88;5115152;28;20027;-31
2022/12/10 07:58:19;;;;;;;76.40;16.90;;;;;;;-143.48;94.86;118439.88;5115158;28;20024;-31
2022/12/10 08:00:44;;;;;;;72.05;18.27;;;;;;;-143.48;94.85;118439.88;5113587;28;20058;-31
2022/12/10 08:03:10;;;;;;;83.85;18.05;;;;;;;-143.48;95.14;118439.88;5113690;28;20115;-31
2022/12/10 08:05:35;;;;;;;127.95;18.88;;;;;;;-143.48;95.22;118439.88;5115004;28;20493;-31
2022/12/10 08:08:01;;;;;;;68.35;17.92;;;;;;;-143.48;94.98;118439.88;5114943;28;20059;-31
2022/12/10 08:10:26;;;;;;;78.20;18.63;;;;;;;-143.48;95.29;118439.88;5115141;28;20020;-31
2022/12/10 08:12:51;;;;;;;86.75;18.15;;;;;;;-143.48;95.29;118439.88;5116969;28;20054;-31
2022/12/10 08:15:16;;;;;;;75.03;18.70;;;;;;;-143.48;95.18;118439.88;5117296;28;20023;-31
2022/12/10 08:17:42;;;;;;;111.70;19.40;;;;;;;-143.48;94.54;118439.88;5117139;28;20020;-31
2022/12/10 08:20:08;;;;;;;112.32;17.08;;;;;;;-143.48;94.28;118439.88;5117189;28;20428;-31
2022/12/10 08:22:34;;;;;;;76.15;19.13;;;;;;;-143.48;94.41;118439.88;5117093;28;20028;-31
2022/12/10 08:24:59;;;;;;;72.05;18.23;;;;;;;-143.48;94.98;118439.88;5115362;28;20107;-31
2022/12/10 08:27:25;;;;;;;49.13;17.88;;;;;;;-143.48;94.95;118439.88;5116619;28;20035;-31
2022/12/10 08:29:50;;;;;;;92.50;19.05;;;;;;;-143.48;94.77;118439.88;5116352;27;20530;-31
2022/12/10 08:32:15;;;;;;;87.93;19.50;;;;;;;-143.48;94.64;118439.88;5115433;28;20022;-31
2022/12/10 08:34:40;;;;;;;59.78;18.88;;;;;;;-143.48;94.68;118439.88;5114387;28;20024;-31
2022/12/10 08:37:06;;;;;;;78.90;19.17;;;;;;;-143.48;94.74;118439.88;5114488;28;20467;-31
2022/12/10 08:39:31;;;;;;;61.65;17.83;;;;;;;-143.48;94.54;118439.88;5114797;28;20478;-31
2022/12/10 08:41:56;;;;;;;74.10;20.30;;;;;;;-143.48;94.23;118439.88;5114422;28;20026;-31
2022/12/10 08:44:22;;;;;;;49.00;19.15;;;;;;;-143.48;94.00;118439.88;5114395;28;20035;-31
2022/12/10 08:46:47;;;;;;;65.63;19.05;;;;;;;-143.48;93.20;118439.88;5114323;28;20031;-31
2022/12/10 08:49:12;;;;;;;63.20;18.85;;;;;;;-143.48;93.04;118439.88;5114392;28;20514;-31
2022/12/10 08:51:39;;;;;;;55.67;20.02;;;;;;;-143.48;92.79;118439.88;5116264;28;20454;-31
2022/12/10 08:54:04;;;;;;;75.45;20.13;;;;;;;-143.48;92.89;118439.88;5115867;28;20114;-31
2022/12/10 08:56:29;;;;;;;95.75;21.75;;;;;;;-143.48;93.85;118439.88;5116336;28;20099;-31
2022/12/10 08:58:55;;;;;;;102.38;20.13;;;;;;;-143.48;93.99;118439.88;5116738;28;20032;-31
2022/12/10 09:01:20;;;;;;;81.57;22.23;;;;;;;-143.48;94.77;118439.88;5116200;28;20034;-31
2022/12/10 09:03:46;;;;;;;66.80;21.17;;;;;;;-143.48;94.71;118439.88;5116461;28;20032;-32
2022/12/10 09:06:15;;;;;;;81.72;20.58;;;;;;;-143.48;93.86;118439.88;5114822;28;20381;-32
2022/12/10 09:08:40;;;;;;;67.90;20.38;;;;;;;-143.48;92.83;118439.88;5114841;28;20500;-32
2022/12/10 09:11:12;;;;;;;71.05;18.75;;;;;;;-143.48;92.65;118439.88;5114665;28;20021;-32
2022/12/10 09:13:37;;;;;;;83.65;20.15;;;;;;;-143.48;93.09;118439.88;5115912;28;20027;-32
2022/12/10 09:16:04;;;;;;;75.38;20.30;;;;;;;-143.48;93.34;118439.88;5115851;28;20030;-32
2022/12/10 09:18:29;;;;;;;76.63;19.35;;;;;;;-143.48;93.23;118439.88;5115987;28;20057;-31
2022/12/10 09:20:54;;;;;;;64.30;21.00;;;;;;;-143.48;93.27;118439.88;5115833;28;20027;-32
2022/12/10 09:23:20;;;;;;;94.85;19.88;;;;;;;-143.48;92.76;118439.88;5116057;28;20515;-31
2022/12/10 09:25:45;;;;;;;67.50;20.13;;;;;;;-143.48;93.09;118439.88;5115633;28;20035;-31
2022/12/10 09:28:10;;;;;;;93.22;20.42;;;;;;;-143.48;92.87;118439.88;5115548;28;20086;-32
2022/12/10 09:30:36;;;;;;;67.22;20.48;;;;;;;-143.48;92.97;118439.88;5115394;27;20020;-33
2022/12/10 09:33:02;;;;;;;65.75;20.80;;;;;;;-143.48;92.52;118439.88;5113832;28;20106;-31
2022/12/10 09:35:27;;;;;;;89.55;20.13;;;;;;;-143.48;92.14;118439.88;5113930;28;20024;-32
2022/12/10 09:37:53;;;;;;;96.68;21.35;;;;;;;-143.48;91.93;118439.88;5113822;28;20523;-31
2022/12/10 09:40:25;;;;;;;62.17;19.48;;;;;;;-143.48;92.27;118439.88;5115034;28;20096;-31
2022/12/10 09:43:17;;;;;;;59.45;20.33;;;;;;;-143.48;92.29;118439.88;5114958;28;20016;-32
2022/12/10 09:46:10;;;;;;;64.45;22.05;;;;;;;-143.48;92.03;118439.88;5114078;28;20066;-32
2022/12/10 09:48:54;;;;;;;65.13;21.55;;;;;;;-143.48;92.29;118439.88;5112592;28;20038;-32
2022/12/10 09:51:35;;;;;;;88.00;20.77;;;;;;;-143.48;92.04;118439.88;5112594;28;20019;-32
2022/12/10 09:54:04;;;;;;;78.97;23.48;;;;;;;-143.48;92.15;118439.88;5113248;28;20462;-32
2022/12/10 09:56:36;;;;;;;83.65;22.90;;;;;;;-143.48;92.54;118439.88;5113303;28;20031;-33
2022/12/10 09:59:17;;;;;;;73.22;22.48;;;;;;;-143.48;92.92;118439.88;5113736;28;20484;-32
2022/12/10 10:01:44;;;;;;;67.65;22.73;;;;;;;-143.48;92.85;118439.88;5114750;28;20050;-32
2022/12/10 10:04:10;;;;;;;80.07;21.08;;;;;;;-143.48;93.53;118439.88;5114646;28;20481;-32
2022/12/10 10:06:36;;;;;;;63.85;21.75;;;;;;;-143.48;92.94;118439.88;5114143;28;20035;-32
2022/12/10 10:09:02;;;;;;;77.60;22.45;;;;;;;-143.48;92.52;118439.88;5114609;28;20034;-31
2022/12/10 10:11:31;;;;;;;70.43;23.48;;;;;;;-143.48;92.13;118439.88;5114833;28;20020;-32
2022/12/10 10:20:45;;;;;;;94.20;22.70;;;;;;;-143.48;92.77;118439.88;5132690;27;20505;-32
2022/12/10 10:23:14;;;;;;;69.22;20.45;;;;;;;-143.48;92.91;118439.88;5134908;27;20023;-31
2022/12/10 10:32:26;;;;;;;76.50;20.73;;;;;;;-143.48;92.83;118439.88;5134565;27;20083;-31
2022/12/10 10:34:58;;;;;;;78.43;23.33;;;;;;;-143.48;94.03;118439.88;5134601;27;20457;-32
2022/12/10 10:37:41;;;;;;;81.90;22.48;;;;;;;-143.48;94.17;118439.88;5134324;27;20042;-32
2022/12/10 10:40:20;;;;;;;79.57;20.60;;;;;;;-143.48;93.67;118439.88;5134401;27;20034;-31
2022/12/10 10:42:46;;;;;;;88.15;22.20;;;;;;;-143.48;93.48;118439.88;5134553;27;20133;-31
2022/12/10 10:45:32;;;;;;;85.43;23.83;;;;;;;-143.48;93.33;118439.88;5134619;27;20530;-31
2022/12/10 10:48:12;;;;;;;106.95;21.70;;;;;;;-143.48;93.14;118439.88;5134654;27;20027;-31
2022/12/10 10:50:39;;;;;;;94.68;22.25;;;;;;;-143.48;93.69;118439.88;5134662;27;20439;-31
2022/12/10 10:53:28;;;;;;;81.70;22.58;;;;;;;-143.48;94.16;118439.88;5134483;27;20015;-31
2022/12/10 10:55:56;;;;;;;78.75;20.77;;;;;;;-143.48;94.15;118439.88;5134500;27;20051;-32
2022/12/10 10:58:23;;;;;;;75.97;23.73;;;;;;;-143.48;93.80;118439.88;5134474;27;20500;-31
2022/12/10 11:01:16;;;;;;;76.45;21.65;;;;;;;-143.48;93.12;118439.88;5134116;27;20489;-32
2022/12/10 11:03:53;;;;;;;83.40;20.60;;;;;;;-143.48;93.87;118439.88;5084865;28;20027;-32
2022/12/10 11:06:19;;;;;;;90.00;20.40;;;;;;;-143.48;94.15;118439.88;5134156;28;20427;-32
2022/12/10 11:08:46;;;;;;;114.15;20.40;;;;;;;-143.48;94.07;118439.88;5134145;28;20049;-32
2022/12/10 11:11:18;;;;;;;78.50;21.15;;;;;;;-143.48;94.86;118439.88;5134026;28;20105;-32
2022/12/10 11:13:43;;;;;;;77.43;21.58;;;;;;;-143.48;94.64;118439.88;5133614;28;20556;-32
2022/12/10 11:16:09;;;;;;;80.05;22.52;;;;;;;-143.48;93.74;118439.88;5152744;27;20102;-31